Time;durP1;ratioP1;P1;durP2;ratioP2;P2;SDS_P1;SDS_P2;PMS_P1;PMS_P2;Temp;Humidity;BMP_temperature;BMP_pressure;BME280_temperature;BME280_humidity;BME280_pressure;Samples;Min_cycle;Max_cycle;Signal;HPM_P1;HPM_P2
2023/05/02 00:00:51;;;;;;;15.65;7.45;;;10.60;99.90;;;;;;4855921;29;20048;-81
2023/05/02 00:03:18;;;;;;;15.13;7.43;;;10.60;99.90;;;;;;4864255;29;20045;-81
2023/05/02 00:05:45;;;;;;;15.52;6.43;;;10.60;99.90;;;;;;4864833;29;20045;-81
2023/05/02 00:08:12;;;;;;;11.27;5.35;;;10.60;99.90;;;;;;4864563;29;20049;-82
2023/05/02 00:10:38;;;;;;;14.13;5.50;;;10.60;99.90;;;;;;4861093;29;20084;-81
2023/05/02 00:13:05;;;;;;;11.50;4.68;;;10.60;99.90;;;;;;4846080;29;20042;-82
2023/05/02 00:15:32;;;;;;;6.60;3.28;;;10.50;99.90;;;;;;4861444;29;20093;-81
2023/05/02 00:17:59;;;;;;;7.75;3.60;;;10.30;99.90;;;;;;4845838;29;20045;-81
2023/05/02 00:20:25;;;;;;;8.00;3.78;;;10.30;99.90;;;;;;4854090;29;20045;-81
2023/05/02 00:22:52;;;;;;;8.45;3.70;;;10.30;99.90;;;;;;4876432;29;20045;-81
2023/05/02 00:25:19;;;;;;;7.55;3.30;;;10.20;99.90;;;;;;4860431;29;20435;-80
2023/05/02 00:27:46;;;;;;;8.95;3.70;;;10.10;99.90;;;;;;4860655;29;20061;-81
2023/05/02 00:30:13;;;;;;;8.45;3.83;;;10.10;99.90;;;;;;4867704;29;20499;-81
2023/05/02 00:32:40;;;;;;;10.25;3.72;;;10.00;99.90;;;;;;4860569;29;20482;-81
2023/05/02 00:35:08;;;;;;;7.13;3.80;;;10.00;99.90;;;;;;4845962;29;20046;-81
2023/05/02 00:37:34;;;;;;;13.23;4.30;;;9.90;99.90;;;;;;4860208;29;20045;-81
2023/05/02 00:40:02;;;;;;;10.82;3.90;;;9.90;99.90;;;;;;4878248;29;20037;-81
2023/05/02 00:42:33;;;;;;;10.13;4.35;;;9.90;99.90;;;;;;4878625;29;20418;-81
2023/05/02 00:45:00;;;;;;;10.68;4.03;;;9.80;99.90;;;;;;4864379;29;20147;-81
2023/05/02 00:47:26;;;;;;;11.55;4.28;;;9.80;99.90;;;;;;4863338;29;20132;-81
2023/05/02 00:49:53;;;;;;;10.55;4.20;;;9.80;99.90;;;;;;4863405;29;20054;-81
2023/05/02 00:52:20;;;;;;;10.38;3.72;;;9.70;99.90;;;;;;4859982;29;20133;-81
2023/05/02 00:54:47;;;;;;;11.82;3.88;;;9.70;99.90;;;;;;4845106;29;20509;-81
2023/05/02 00:57:14;;;;;;;9.70;3.92;;;9.70;99.90;;;;;;4845077;29;20084;-81
2023/05/02 00:59:40;;;;;;;11.63;3.88;;;9.70;99.90;;;;;;4845197;29;20054;-81
2023/05/02 01:02:14;;;;;;;7.70;4.40;;;9.70;99.90;;;;;;4860291;29;20050;-81
2023/05/02 01:05:02;;;;;;;12.02;4.15;;;9.80;99.90;;;;;;4876737;29;20568;-81
2023/05/02 01:07:58;;;;;;;12.57;3.75;;;9.70;99.90;;;;;;4878400;29;20491;-81
2023/05/02 01:10:40;;;;;;;;;;;9.70;99.90;;;;;;4878790;29;20115;-81
2023/05/02 01:13:12;;;;;;;8.00;4.03;;;9.70;99.90;;;;;;4893748;29;20518;-81
2023/05/02 01:15:40;;;;;;;6.13;3.63;;;9.70;99.90;;;;;;4878294;29;20049;-81
2023/05/02 01:18:14;;;;;;;8.30;4.38;;;9.70;99.90;;;;;;4878699;29;20052;-81
2023/05/02 01:20:45;;;;;;;10.35;4.80;;;9.70;99.90;;;;;;4893719;29;20097;-81
2023/05/02 01:23:48;;;;;;;10.18;4.75;;;9.70;99.90;;;;;;4893478;29;20041;-81
2023/05/02 01:26:16;;;;;;;9.35;4.20;;;9.70;99.90;;;;;;4886722;29;20064;-81
2023/05/02 01:28:48;;;;;;;10.35;4.22;;;9.70;99.90;;;;;;4877954;29;20052;-81
2023/05/02 01:31:15;;;;;;;14.70;4.78;;;9.70;99.90;;;;;;4878186;29;20049;-81
2023/05/02 01:33:44;;;;;;;11.50;3.72;;;9.70;99.90;;;;;;4862604;29;20064;-81
2023/05/02 01:36:13;;;;;;;10.57;4.78;;;9.70;99.90;;;;;;4877812;29;20403;-81
2023/05/02 01:38:42;;;;;;;14.15;4.05;;;9.70;99.90;;;;;;4862582;29;20087;-81
2023/05/02 01:41:11;;;;;;;9.38;3.30;;;9.60;99.90;;;;;;4863124;29;20128;-81
2023/05/02 01:43:40;;;;;;;9.45;3.60;;;9.60;99.90;;;;;;4858926;29;20053;-81
2023/05/02 01:46:08;;;;;;;11.68;3.83;;;9.60;99.90;;;;;;4874576;29;20057;-81
2023/05/02 01:48:36;;;;;;;18.70;3.33;;;9.50;99.90;;;;;;4883463;29;20042;-81
2023/05/02 01:51:06;;;;;;;12.52;3.75;;;9.40;99.90;;;;;;4893226;29;20041;-81
2023/05/02 01:53:34;;;;;;;17.38;3.28;;;9.40;99.90;;;;;;4877254;29;20033;-81
2023/05/02 01:56:01;;;;;;;10.32;3.17;;;9.40;99.90;;;;;;4862625;29;20124;-81
2023/05/02 01:58:31;;;;;;;10.02;2.42;;;9.30;99.90;;;;;;4862450;29;20048;-81
2023/05/02 02:01:00;;;;;;;10.18;2.88;;;9.30;99.90;;;;;;4877829;29;20081;-81
2023/05/02 02:03:29;;;;;;;9.30;2.45;;;9.10;99.90;;;;;;4862367;29;20051;-81
2023/05/02 02:05:58;;;;;;;12.27;2.50;;;9.00;99.90;;;;;;4862534;29;20045;-81
2023/05/02 02:08:25;;;;;;;16.15;3.20;;;9.00;99.90;;;;;;4877553;29;20053;-81
2023/05/02 02:10:58;;;;;;;12.45;2.78;;;8.90;99.90;;;;;;4847010;29;20059;-81
2023/05/02 02:13:34;;;;;;;6.25;2.08;;;8.90;99.90;;;;;;4877182;29;20839;-81
2023/05/02 02:16:04;;;;;;;10.80;2.30;;;8.80;99.90;;;;;;4877156;29;20049;-81
2023/05/02 02:18:36;;;;;;;16.45;2.80;;;8.80;99.90;;;;;;4877735;29;20044;-81
2023/05/02 02:21:07;;;;;;;11.95;2.50;;;8.80;99.90;;;;;;4877489;29;20455;-81
2023/05/02 02:23:35;;;;;;;21.55;4.43;;;8.70;99.90;;;;;;4877380;29;20497;-81
2023/05/02 02:26:03;;;;;;;13.73;3.40;;;8.60;99.90;;;;;;4877260;29;20152;-81
2023/05/02 02:28:32;;;;;;;12.52;3.15;;;8.60;99.90;;;;;;4877037;29;20051;-81
2023/05/02 02:30:59;;;;;;;10.50;2.63;;;8.50;99.90;;;;;;4876924;29;20097;-81
2023/05/02 02:33:30;;;;;;;12.60;3.17;;;8.50;99.90;;;;;;4862519;29;20050;-81
2023/05/02 02:36:23;;;;;;;12.80;3.38;;;8.40;99.90;;;;;;4876937;29;20052;-81
2023/05/02 02:38:59;;;;;;;11.85;3.25;;;8.40;99.90;;;;;;4876962;29;20044;-81
2023/05/02 02:41:31;;;;;;;12.07;3.45;;;8.40;99.90;;;;;;4877245;29;20049;-81
2023/05/02 02:44:22;;;;;;;15.73;3.22;;;8.30;99.90;;;;;;4862298;29;20419;-80
2023/05/02 02:47:13;;;;;;;20.38;3.45;;;8.30;99.90;;;;;;4891928;29;20064;-80
2023/05/02 02:49:50;;;;;;;15.18;3.70;;;8.30;99.90;;;;;;4892266;29;20041;-81
2023/05/02 02:52:21;;;;;;;14.73;3.78;;;8.30;99.90;;;;;;4876870;29;20041;-80
2023/05/02 02:54:53;;;;;;;12.90;3.35;;;8.30;99.90;;;;;;4891971;29;20105;-80
2023/05/02 02:57:31;;;;;;;23.58;4.18;;;8.30;99.90;;;;;;4876636;29;20495;-81
2023/05/02 03:00:12;;;;;;;15.07;3.55;;;8.30;99.90;;;;;;4891834;29;20521;-81
2023/05/02 03:02:41;;;;;;;15.63;3.75;;;8.30;99.90;;;;;;4891982;29;20414;-81
2023/05/02 03:05:09;;;;;;;11.50;2.92;;;8.30;99.90;;;;;;4861465;29;20395;-81
2023/05/02 03:07:36;;;;;;;11.88;2.83;;;8.30;99.90;;;;;;4876609;29;20451;-81
2023/05/02 03:10:04;;;;;;;14.13;2.65;;;8.20;99.90;;;;;;4846312;29;20073;-81
2023/05/02 03:12:31;;;;;;;13.65;3.05;;;8.20;99.90;;;;;;4861929;29;20041;-80
2023/05/02 03:15:18;;;;;;;14.10;3.03;;;8.20;99.90;;;;;;4846018;29;20507;-80
2023/05/02 03:17:45;;;;;;;10.68;2.60;;;8.20;99.90;;;;;;4876998;29;20041;-80
2023/05/02 03:20:12;;;;;;;10.27;2.83;;;8.10;99.90;;;;;;4861484;29;20068;-81
2023/05/02 03:22:38;;;;;;;14.80;2.88;;;8.10;99.90;;;;;;4861532;29;20058;-81
2023/05/02 03:25:05;;;;;;;14.27;2.55;;;8.10;99.90;;;;;;4861266;29;20098;-81
2023/05/02 03:27:32;;;;;;;17.10;2.67;;;8.10;99.90;;;;;;4846609;29;20056;-80
2023/05/02 03:29:59;;;;;;;11.27;2.83;;;8.10;99.90;;;;;;4861323;29;20042;-80
2023/05/02 03:32:26;;;;;;;21.30;3.20;;;8.10;99.90;;;;;;4861369;29;20041;-81
2023/05/02 03:34:57;;;;;;;16.60;3.13;;;8.10;99.90;;;;;;4861225;29;20106;-81
2023/05/02 03:37:24;;;;;;;15.20;2.80;;;8.10;99.90;;;;;;4876874;29;20050;-81
2023/05/02 03:39:51;;;;;;;16.02;2.78;;;8.00;99.90;;;;;;4860932;29;20495;-81
2023/05/02 03:42:17;;;;;;;8.55;2.85;;;8.00;99.90;;;;;;4846343;29;20059;-80
2023/05/02 03:44:44;;;;;;;13.18;2.58;;;8.00;99.90;;;;;;4861382;29;20045;-80
2023/05/02 03:47:12;;;;;;;10.82;2.75;;;8.00;99.90;;;;;;4845976;29;20053;-80
2023/05/02 03:49:39;;;;;;;11.82;2.85;;;7.90;99.90;;;;;;4875818;29;20057;-80
2023/05/02 03:52:06;;;;;;;12.20;3.35;;;7.90;99.90;;;;;;4876137;29;20038;-80
2023/05/02 03:54:32;;;;;;;11.80;2.45;;;7.90;99.90;;;;;;4860992;29;20498;-81
2023/05/02 03:56:59;;;;;;;10.20;2.50;;;7.90;99.90;;;;;;4875737;29;20052;-80
2023/05/02 03:59:26;;;;;;;13.52;2.92;;;7.90;99.90;;;;;;4857277;29;20042;-80
2023/05/02 04:01:53;;;;;;;9.93;2.83;;;7.90;99.90;;;;;;4841860;29;20054;-80
2023/05/02 04:04:20;;;;;;;8.07;2.13;;;7.80;99.90;;;;;;4857485;29;20052;-81
2023/05/02 04:06:46;;;;;;;9.07;2.40;;;7.80;99.90;;;;;;4857395;29;20053;-80
2023/05/02 04:09:13;;;;;;;16.65;2.55;;;7.70;99.90;;;;;;4861663;29;20196;-81
2023/05/02 04:11:40;;;;;;;9.27;2.53;;;7.70;99.90;;;;;;4860519;29;20045;-80
2023/05/02 04:14:07;;;;;;;11.48;2.40;;;7.70;99.90;;;;;;4874985;29;20060;-81
2023/05/02 04:16:34;;;;;;;7.75;1.90;;;7.70;99.90;;;;;;4862791;29;20373;-80
2023/05/02 04:19:00;;;;;;;11.55;2.42;;;7.70;99.90;;;;;;4863788;29;20041;-80
2023/05/02 04:21:27;;;;;;;12.65;3.17;;;7.70;99.90;;;;;;4864078;29;20128;-81
2023/05/02 04:23:54;;;;;;;9.32;2.03;;;7.70;99.90;;;;;;4879338;29;20486;-80
2023/05/02 04:26:20;;;;;;;8.77;1.88;;;7.60;99.90;;;;;;4864113;29;20046;-80
2023/05/02 04:28:47;;;;;;;8.25;2.28;;;7.60;99.90;;;;;;4879331;29;20046;-81
2023/05/02 04:31:14;;;;;;;11.05;1.92;;;7.60;99.90;;;;;;4863389;29;20068;-80
2023/05/02 04:33:40;;;;;;;7.82;1.75;;;7.60;99.90;;;;;;4879447;29;20114;-80
2023/05/02 04:36:09;;;;;;;8.93;2.00;;;7.60;99.90;;;;;;4863964;29;20487;-80
2023/05/02 04:38:36;;;;;;;8.05;1.98;;;7.60;99.90;;;;;;4879357;29;20041;-81
2023/05/02 04:41:02;;;;;;;5.40;1.52;;;7.60;99.90;;;;;;4860244;29;20048;-80
2023/05/02 04:43:29;;;;;;;9.30;2.63;;;7.60;99.90;;;;;;4845256;29;20042;-80
2023/05/02 04:45:57;;;;;;;8.38;1.75;;;7.50;99.90;;;;;;4845546;29;20609;-81
2023/05/02 04:48:24;;;;;;;6.45;1.52;;;7.60;99.90;;;;;;4845421;29;20049;-81
2023/05/02 04:50:54;;;;;;;5.70;1.50;;;7.60;99.90;;;;;;4863114;29;20422;-81
2023/05/02 04:53:22;;;;;;;9.27;1.48;;;7.60;99.90;;;;;;4878716;29;20059;-81
2023/05/02 04:55:49;;;;;;;12.55;1.73;;;7.60;99.90;;;;;;4878872;29;20045;-81
2023/05/02 04:58:15;;;;;;;7.85;1.75;;;7.60;99.90;;;;;;4847844;29;20038;-81
2023/05/02 05:00:43;;;;;;;5.20;1.27;;;7.60;99.90;;;;;;4848215;29;20076;-81
2023/05/02 05:03:09;;;;;;;5.22;1.40;;;7.60;99.90;;;;;;4877887;29;20555;-81
2023/05/02 05:05:36;;;;;;;5.95;1.70;;;7.60;99.90;;;;;;4848370;29;20141;-81
2023/05/02 05:08:03;;;;;;;12.63;2.03;;;7.50;99.90;;;;;;4863361;29;20728;-81
2023/05/02 05:10:30;;;;;;;7.03;2.25;;;7.50;99.90;;;;;;4863405;29;20499;-81
2023/05/02 05:12:57;;;;;;;8.02;1.52;;;7.50;99.90;;;;;;4863398;29;20045;-81
2023/05/02 05:15:24;;;;;;;10.63;2.20;;;7.50;99.90;;;;;;4863012;29;20143;-81
2023/05/02 05:17:51;;;;;;;9.45;2.20;;;7.50;99.90;;;;;;4863449;29;20466;-81
2023/05/02 05:20:18;;;;;;;6.57;1.65;;;7.50;99.90;;;;;;4862527;29;20080;-81
2023/05/02 05:22:45;;;;;;;8.77;1.92;;;7.40;99.90;;;;;;4863359;29;20057;-80
2023/05/02 05:25:12;;;;;;;7.40;1.92;;;7.40;99.90;;;;;;4862688;29;20121;-81
2023/05/02 05:27:39;;;;;;;7.88;2.30;;;7.50;99.90;;;;;;4876959;29;20112;-81
2023/05/02 05:30:07;;;;;;;7.93;2.30;;;7.40;99.90;;;;;;4893357;29;20046;-80
2023/05/02 05:32:34;;;;;;;10.95;2.25;;;7.40;99.90;;;;;;4874601;29;20074;-81
2023/05/02 05:35:01;;;;;;;10.27;2.08;;;7.40;99.90;;;;;;4844326;29;20046;-81
2023/05/02 05:37:28;;;;;;;8.35;1.60;;;7.30;99.90;;;;;;4843888;29;20046;-81
2023/05/02 05:39:54;;;;;;;13.30;2.10;;;7.40;99.90;;;;;;4844255;29;20045;-81
2023/05/02 05:42:21;;;;;;;6.72;1.90;;;7.30;99.90;;;;;;4874292;29;20109;-81
2023/05/02 05:44:48;;;;;;;11.73;2.22;;;7.30;99.90;;;;;;4859066;29;20077;-81
2023/05/02 05:47:20;;;;;;;11.93;2.35;;;7.30;99.90;;;;;;4843636;29;20053;-80
2023/05/02 05:49:51;;;;;;;12.18;2.17;;;7.30;99.90;;;;;;4844111;29;20129;-80
2023/05/02 05:52:18;;;;;;;9.38;2.00;;;7.20;99.90;;;;;;4859830;29;20044;-80
2023/05/02 05:54:44;;;;;;;11.23;2.38;;;7.30;99.90;;;;;;4878033;29;20136;-80
2023/05/02 05:57:11;;;;;;;10.15;2.60;;;7.30;99.90;;;;;;4862306;29;20040;-80
2023/05/02 05:59:38;;;;;;;9.40;2.42;;;7.20;99.90;;;;;;4877721;29;20076;-81
2023/05/02 06:02:05;;;;;;;6.72;1.98;;;7.30;99.90;;;;;;4862514;29;20046;-81
2023/05/02 06:04:32;;;;;;;13.45;2.50;;;7.30;99.90;;;;;;4877244;29;20041;-80
2023/05/02 06:06:58;;;;;;;9.57;1.75;;;7.40;99.90;;;;;;4862372;29;20057;-80
2023/05/02 06:09:25;;;;;;;9.45;2.40;;;7.30;99.90;;;;;;4862110;29;20053;-81
2023/05/02 06:11:51;;;;;;;8.07;2.20;;;7.30;99.90;;;;;;4862490;29;20050;-81
2023/05/02 06:14:18;;;;;;;14.40;2.65;;;7.40;99.90;;;;;;4861839;29;20118;-80
2023/05/02 06:16:45;;;;;;;9.23;2.42;;;7.50;99.90;;;;;;4862724;29;20038;-81
2023/05/02 06:19:12;;;;;;;10.95;2.22;;;7.50;99.90;;;;;;4877531;29;20703;-81
2023/05/02 06:21:38;;;;;;;11.02;2.67;;;7.60;99.90;;;;;;4862298;29;20056;-81
2023/05/02 06:24:05;;;;;;;10.23;2.08;;;7.60;99.90;;;;;;4892798;29;20068;-81
2023/05/02 06:26:32;;;;;;;7.90;2.08;;;7.70;99.90;;;;;;4861992;29;20506;-81
2023/05/02 06:28:59;;;;;;;10.43;2.65;;;7.60;99.90;;;;;;4862131;29;20080;-81
2023/05/02 06:31:25;;;;;;;8.85;2.08;;;7.70;99.90;;;;;;4862113;29;20053;-81
2023/05/02 06:33:52;;;;;;;9.82;1.98;;;7.70;99.90;;;;;;4862499;29;20154;-80
2023/05/02 06:36:18;;;;;;;5.88;1.98;;;7.70;99.90;;;;;;4877322;29;20052;-80
2023/05/02 06:38:46;;;;;;;11.05;2.20;;;7.70;99.90;;;;;;4877089;29;20050;-81
2023/05/02 06:41:16;;;;;;;7.20;2.05;;;7.90;99.90;;;;;;4862223;29;20097;-81
2023/05/02 06:43:43;;;;;;;8.23;2.20;;;7.90;99.90;;;;;;4876922;29;20133;-81
2023/05/02 06:46:09;;;;;;;8.07;2.00;;;7.90;99.90;;;;;;4877275;29;20080;-81
2023/05/02 06:48:36;;;;;;;11.73;2.50;;;7.90;99.90;;;;;;4861886;29;20049;-81
2023/05/02 06:51:03;;;;;;;8.18;2.50;;;8.00;99.90;;;;;;4862153;29;20053;-81
2023/05/02 06:53:30;;;;;;;8.18;2.05;;;8.10;99.90;;;;;;4861766;29;20045;-80
2023/05/02 06:55:57;;;;;;;10.25;2.45;;;8.20;99.90;;;;;;4858554;29;20056;-81
2023/05/02 06:58:24;;;;;;;6.80;2.00;;;8.10;99.90;;;;;;4886421;29;20045;-81
2023/05/02 07:00:51;;;;;;;9.68;2.40;;;8.20;99.90;;;;;;4861741;29;20085;-81
2023/05/02 07:03:17;;;;;;;10.77;2.10;;;8.20;99.90;;;;;;4861662;29;20132;-80
2023/05/02 07:05:44;;;;;;;6.43;2.13;;;8.20;99.90;;;;;;4861213;29;20053;-81
2023/05/02 07:08:11;;;;;;;10.35;2.83;;;8.20;99.90;;;;;;4877038;29;20562;-82
2023/05/02 07:10:38;;;;;;;8.18;2.17;;;8.20;99.90;;;;;;4846642;29;20407;-81
2023/05/02 07:13:05;;;;;;;9.60;2.67;;;8.30;99.90;;;;;;4862018;29;20044;-81
2023/05/02 07:15:32;;;;;;;9.65;2.20;;;8.30;99.90;;;;;;4876449;29;20144;-81
2023/05/02 07:17:59;;;;;;;8.85;2.25;;;8.30;99.90;;;;;;4861804;29;20041;-81
2023/05/02 07:20:26;;;;;;;9.75;2.92;;;8.40;99.90;;;;;;4858523;29;20046;-81
2023/05/02 07:22:53;;;;;;;11.38;2.72;;;8.40;99.90;;;;;;4873337;29;20072;-81
2023/05/02 07:25:20;;;;;;;9.57;2.67;;;8.40;99.90;;;;;;4869567;29;20081;-81
2023/05/02 07:27:46;;;;;;;12.38;2.42;;;8.30;99.90;;;;;;4865424;29;20062;-82
2023/05/02 07:30:13;;;;;;;9.98;2.38;;;8.40;99.90;;;;;;4865389;29;20049;-82
2023/05/02 07:32:40;;;;;;;9.23;2.22;;;8.40;99.90;;;;;;4875989;29;20116;-82
2023/05/02 07:35:07;;;;;;;11.18;2.33;;;8.40;99.90;;;;;;4860934;29;20037;-82
2023/05/02 07:37:34;;;;;;;9.82;2.20;;;8.60;99.90;;;;;;4875761;29;20132;-82
2023/05/02 07:40:02;;;;;;;13.23;2.40;;;8.60;99.90;;;;;;4860764;29;20124;-82
2023/05/02 07:42:29;;;;;;;13.20;2.20;;;8.60;99.90;;;;;;4876199;29;20097;-82
2023/05/02 07:44:58;;;;;;;9.13;2.22;;;8.70;99.90;;;;;;4876352;29;20499;-81
2023/05/02 07:47:25;;;;;;;8.00;3.38;;;8.80;99.90;;;;;;4861095;29;20132;-81
2023/05/02 07:49:53;;;;;;;9.93;2.10;;;8.80;99.90;;;;;;4860229;29;20045;-81
2023/05/02 07:52:20;;;;;;;4.85;1.85;;;8.80;99.90;;;;;;4891178;29;20041;-81
2023/05/02 07:54:50;;;;;;;7.97;1.95;;;8.80;99.90;;;;;;4882439;29;20055;-81
2023/05/02 07:57:17;;;;;;;7.38;1.90;;;8.90;99.90;;;;;;4897819;29;20482;-81
2023/05/02 07:59:44;;;;;;;7.25;2.22;;;9.00;99.90;;;;;;4894244;29;20049;-82
2023/05/02 08:02:12;;;;;;;10.98;2.40;;;9.10;99.90;;;;;;4862176;29;20057;-82
2023/05/02 08:04:39;;;;;;;7.45;2.50;;;9.10;99.90;;;;;;4860675;29;20500;-82
2023/05/02 08:07:06;;;;;;;10.60;2.13;;;9.20;99.90;;;;;;4846133;29;20141;-82
2023/05/02 08:09:33;;;;;;;13.65;2.28;;;9.30;99.90;;;;;;4860633;29;20086;-81
2023/05/02 08:12:01;;;;;;;7.15;2.13;;;9.40;99.90;;;;;;4860679;29;20041;-82
2023/05/02 08:14:28;;;;;;;8.05;2.28;;;9.50;99.90;;;;;;4860536;29;20062;-82
2023/05/02 08:16:55;;;;;;;7.95;2.28;;;9.40;99.90;;;;;;4845556;29;20518;-81
2023/05/02 08:19:21;;;;;;;6.85;1.77;;;9.50;99.90;;;;;;4845365;29;20144;-82
2023/05/02 08:21:48;;;;;;;8.68;2.03;;;9.50;99.90;;;;;;4845561;29;20488;-82
2023/05/02 08:24:15;;;;;;;8.43;2.05;;;9.40;99.90;;;;;;4845705;29;20558;-82
2023/05/02 08:26:41;;;;;;;12.05;2.47;;;9.60;99.90;;;;;;4860053;29;20044;-81
2023/05/02 08:29:10;;;;;;;10.23;2.53;;;9.60;99.90;;;;;;4845773;29;20509;-81
2023/05/02 08:31:40;;;;;;;8.32;2.00;;;9.70;99.90;;;;;;4845962;29;20041;-81
2023/05/02 08:34:07;;;;;;;5.05;1.65;;;9.60;99.90;;;;;;4845279;29;20046;-82
2023/05/02 08:36:36;;;;;;;6.82;1.58;;;9.70;99.90;;;;;;4844695;29;20416;-82
2023/05/02 08:39:02;;;;;;;8.93;1.58;;;9.70;99.90;;;;;;4845860;29;20049;-82
2023/05/02 08:41:30;;;;;;;6.15;1.42;;;9.80;99.90;;;;;;4862157;29;20100;-82
2023/05/02 08:43:58;;;;;;;5.97;1.15;;;9.80;99.90;;;;;;4877090;29;20080;-82
2023/05/02 08:46:25;;;;;;;6.13;1.30;;;9.90;99.90;;;;;;4868466;29;20048;-82
2023/05/02 08:48:57;;;;;;;7.32;1.40;;;10.00;99.90;;;;;;4865790;29;20048;-81
2023/05/02 08:51:26;;;;;;;22.73;1.88;;;10.20;99.90;;;;;;4864369;29;20746;-82
2023/05/02 08:53:53;;;;;;;3.58;1.20;;;10.20;99.90;;;;;;4878642;29;20045;-82
2023/05/02 08:56:20;;;;;;;4.18;1.30;;;10.30;99.90;;;;;;4878882;29;20042;-82
2023/05/02 08:58:48;;;;;;;6.63;1.83;;;10.20;99.90;;;;;;4878899;29;20419;-82
2023/05/02 09:01:17;;;;;;;3.38;1.20;;;10.30;99.90;;;;;;4886693;29;20049;-81
2023/05/02 09:03:46;;;;;;;3.33;1.20;;;10.20;99.90;;;;;;4895925;29;20056;-81
2023/05/02 09:06:18;;;;;;;3.10;1.30;;;10.30;99.90;;;;;;4883966;29;20472;-82
2023/05/02 09:08:48;;;;;;;5.82;1.30;;;10.30;99.90;;;;;;4882658;29;20051;-82
2023/05/02 09:11:16;;;;;;;2.50;1.10;;;10.20;99.90;;;;;;4878409;29;20037;-82
2023/05/02 09:13:44;;;;;;;5.05;1.33;;;10.30;99.90;;;;;;4862806;29;20049;-82
2023/05/02 09:16:16;;;;;;;4.20;1.10;;;10.20;99.90;;;;;;4859660;29;20179;-82
2023/05/02 09:18:45;;;;;;;5.25;1.10;;;10.10;99.90;;;;;;4874858;29;20133;-82
2023/05/02 09:21:17;;;;;;;4.60;1.33;;;10.10;99.90;;;;;;4893561;29;20048;-81
2023/05/02 09:24:08;;;;;;;4.18;1.20;;;10.00;99.90;;;;;;4866223;29;20041;-82
2023/05/02 09:26:34;;;;;;;5.50;1.27;;;10.10;99.90;;;;;;4892833;29;20101;-82
2023/05/02 09:29:04;;;;;;;4.35;1.25;;;10.10;99.90;;;;;;4862754;29;20502;-82
2023/05/02 09:31:35;;;;;;;4.72;1.10;;;10.20;99.90;;;;;;4877860;29;20052;-82
2023/05/02 09:34:10;;;;;;;3.88;1.33;;;10.20;99.90;;;;;;4863297;29;20430;-83
2023/05/02 09:36:42;;;;;;;5.22;1.05;;;10.10;99.90;;;;;;4878131;29;20120;-83
2023/05/02 09:39:14;;;;;;;5.18;1.30;;;10.10;99.90;;;;;;4847541;29;20049;-82
2023/05/02 09:41:42;;;;;;;6.50;1.45;;;10.00;99.90;;;;;;4877718;29;20049;-82
2023/05/02 09:44:17;;;;;;;3.83;1.30;;;10.00;99.90;;;;;;4862502;29;20128;-82
2023/05/02 09:46:48;;;;;;;6.15;1.33;;;10.10;99.90;;;;;;4877556;29;20034;-82
2023/05/02 09:49:18;;;;;;;4.93;1.40;;;10.10;99.90;;;;;;4862884;29;20040;-82
2023/05/02 09:51:46;;;;;;;6.43;1.30;;;10.20;99.90;;;;;;4877118;29;20048;-82
2023/05/02 09:54:32;;;;;;;6.57;1.13;;;10.50;99.90;;;;;;4844229;29;20645;-82
2023/05/02 09:57:00;;;;;;;5.68;1.30;;;10.60;99.90;;;;;;4874583;29;20050;-82
2023/05/02 09:59:27;;;;;;;7.68;1.15;;;10.70;99.90;;;;;;4844720;29;20044;-82
2023/05/02 10:01:56;;;;;;;4.50;1.17;;;10.60;99.90;;;;;;4846804;29;20120;-82
2023/05/02 10:04:23;;;;;;;3.03;0.98;;;10.60;99.90;;;;;;4875349;29;20112;-81
2023/05/02 10:06:53;;;;;;;3.08;1.33;;;10.40;99.90;;;;;;4880930;29;20544;-81
2023/05/02 10:09:21;;;;;;;3.88;0.98;;;10.40;99.90;;;;;;4880813;29;20045;-82
2023/05/02 10:11:55;;;;;;;5.95;1.30;;;10.40;99.90;;;;;;4895935;29;20045;-82
2023/05/02 10:14:24;;;;;;;4.45;1.15;;;10.30;99.90;;;;;;4879874;29;20087;-81
2023/05/02 10:17:03;;;;;;;4.07;1.10;;;10.20;99.90;;;;;;4895574;29;20499;-82
2023/05/02 10:19:51;;;;;;;4.50;1.25;;;10.20;99.90;;;;;;4896393;29;20497;-81
2023/05/02 10:22:18;;;;;;;5.30;1.20;;;10.30;99.90;;;;;;4879668;29;20049;-82
2023/05/02 10:24:49;;;;;;;3.33;1.27;;;10.40;99.90;;;;;;4876794;29;20407;-82
2023/05/02 10:27:16;;;;;;;5.28;1.30;;;10.40;99.90;;;;;;4877169;29;20132;-82
2023/05/02 10:29:43;;;;;;;5.60;1.88;;;10.50;99.90;;;;;;4877401;29;20092;-82
2023/05/02 10:32:11;;;;;;;4.60;1.23;;;10.40;99.90;;;;;;4876933;29;20045;-81
2023/05/02 10:34:39;;;;;;;4.57;1.13;;;10.30;99.90;;;;;;4860767;29;20048;-82
2023/05/02 10:37:06;;;;;;;3.30;1.00;;;10.10;99.90;;;;;;4895357;29;20124;-81
2023/05/02 10:39:32;;;;;;;9.10;1.33;;;10.00;99.90;;;;;;4895082;29;20144;-81
2023/05/02 10:42:02;;;;;;;3.85;1.30;;;9.90;99.90;;;;;;4857658;29;20049;-82
2023/05/02 10:44:36;;;;;;;2.63;1.00;;;9.90;99.90;;;;;;4862295;29;20053;-81
2023/05/02 10:47:20;;;;;;;2.75;1.02;;;9.90;99.90;;;;;;4876440;29;20053;-82
2023/05/02 10:49:51;;;;;;;5.75;1.20;;;10.00;99.90;;;;;;4861590;29;20073;-81
2023/05/02 10:52:25;;;;;;;2.90;1.08;;;10.30;99.90;;;;;;4858465;29;20042;-81
2023/05/02 10:55:11;;;;;;;4.75;1.20;;;10.60;99.90;;;;;;4858692;29;20124;-82
2023/05/02 10:57:59;;;;;;;4.10;1.27;;;10.70;99.90;;;;;;4861330;29;20052;-82
2023/05/02 11:00:32;;;;;;;4.90;1.20;;;10.80;99.90;;;;;;4867158;29;20101;-81
2023/05/02 11:02:59;;;;;;;3.72;1.25;;;10.60;99.90;;;;;;4873638;29;20132;-82
2023/05/02 11:05:27;;;;;;;6.75;1.40;;;10.50;99.90;;;;;;4873347;29;20102;-81
2023/05/02 11:08:16;;;;;;;2.20;1.00;;;10.40;99.90;;;;;;4857788;29;20101;-81
2023/05/02 11:10:44;;;;;;;3.67;1.50;;;10.50;99.90;;;;;;4876320;29;20073;-81
2023/05/02 11:13:11;;;;;;;3.03;0.98;;;10.40;99.90;;;;;;4891487;29;20049;-81
2023/05/02 11:15:41;;;;;;;1.65;0.75;;;10.50;99.90;;;;;;4861073;29;20053;-81
2023/05/02 11:18:12;;;;;;;3.42;1.02;;;10.70;99.90;;;;;;4891729;29;20050;-82
2023/05/02 11:20:43;;;;;;;3.00;1.02;;;10.90;99.90;;;;;;4857906;29;20057;-82
2023/05/02 11:23:27;;;;;;;8.27;1.38;;;11.10;99.90;;;;;;4860951;29;20058;-82
2023/05/02 11:25:56;;;;;;;3.17;0.85;;;11.30;99.90;;;;;;4877044;29;20419;-81
2023/05/02 11:28:44;;;;;;;3.08;1.10;;;11.60;99.90;;;;;;4864998;29;20056;-81
2023/05/02 11:31:25;;;;;;;3.72;1.00;;;11.50;99.90;;;;;;4879790;29;20048;-82
2023/05/02 11:33:56;;;;;;;3.38;0.95;;;11.40;99.90;;;;;;4879620;29;20042;-82
2023/05/02 11:36:29;;;;;;;4.88;1.02;;;11.20;99.90;;;;;;4864646;29;20045;-82
2023/05/02 11:38:56;;;;;;;3.83;1.10;;;11.10;99.90;;;;;;4864812;29;20046;-83
2023/05/02 11:41:37;;;;;;;3.40;0.70;;;11.00;99.90;;;;;;4849796;29;20070;-82
2023/05/02 11:44:03;;;;;;;4.68;1.20;;;11.00;99.90;;;;;;4866116;29;20046;-82
2023/05/02 11:46:31;;;;;;;3.83;1.02;;;11.00;99.90;;;;;;4849631;29;20396;-82
2023/05/02 11:48:58;;;;;;;2.53;0.70;;;11.30;99.90;;;;;;4849451;29;20071;-82
2023/05/02 11:51:25;;;;;;;4.80;1.20;;;11.40;99.90;;;;;;4849170;29;20136;-82
2023/05/02 11:53:52;;;;;;;8.10;1.25;;;11.30;99.90;;;;;;4861473;29;20069;-83
2023/05/02 11:56:23;;;;;;;5.07;1.00;;;11.20;99.90;;;;;;4866102;29;20080;-82
2023/05/02 11:59:03;;;;;;;5.10;1.02;;;11.20;99.90;;;;;;4876195;29;20046;-82
2023/05/02 12:01:30;;;;;;;4.35;1.10;;;11.00;99.90;;;;;;4876726;29;20053;-83
2023/05/02 12:04:07;;;;;;;3.25;0.80;;;11.00;99.90;;;;;;4863899;29;20121;-82
2023/05/02 12:06:34;;;;;;;3.33;0.98;;;10.70;99.90;;;;;;4857843;29;20106;-83
2023/05/02 12:09:08;;;;;;;3.35;0.95;;;10.70;99.90;;;;;;4860641;29;20041;-82
2023/05/02 12:11:37;;;;;;;5.53;1.50;;;10.60;99.90;;;;;;4860897;29;20136;-83
2023/05/02 12:14:07;;;;;;;6.35;1.20;;;10.50;99.90;;;;;;4845661;29;20503;-83
2023/05/02 12:16:34;;;;;;;5.03;1.20;;;10.40;99.90;;;;;;4846385;29;20050;-83
2023/05/02 12:19:01;;;;;;;4.35;1.33;;;10.40;99.90;;;;;;4845701;29;20042;-82
2023/05/02 12:21:29;;;;;;;5.07;1.10;;;10.30;99.90;;;;;;4876211;29;20057;-83
2023/05/02 12:23:56;;;;;;;5.82;1.02;;;10.30;99.90;;;;;;4860728;29;20068;-83
2023/05/02 12:26:28;;;;;;;3.78;1.10;;;10.50;99.90;;;;;;4858661;29;20053;-83
2023/05/02 12:28:55;;;;;;;4.45;0.98;;;10.70;99.90;;;;;;4861245;29;20049;-81
2023/05/02 12:31:22;;;;;;;4.93;1.23;;;11.10;99.90;;;;;;4860631;29;20077;-83
2023/05/02 12:33:51;;;;;;;4.18;1.00;;;11.40;99.90;;;;;;4860308;29;20534;-82
2023/05/02 12:36:18;;;;;;;3.97;1.45;;;11.60;99.90;;;;;;4871918;29;20033;-82
2023/05/02 12:38:53;;;;;;;3.47;1.10;;;11.60;99.90;;;;;;4864068;29;20053;-82
2023/05/02 12:41:33;;;;;;;3.05;0.95;;;11.40;99.90;;;;;;4863716;29;20054;-82
2023/05/02 12:44:00;;;;;;;2.55;0.93;;;11.30;99.90;;;;;;4878810;29;20130;-82
2023/05/02 12:46:30;;;;;;;2.92;1.23;;;11.20;99.90;;;;;;4879012;29;20525;-83
2023/05/02 12:49:08;;;;;;;2.33;1.50;;;11.10;99.90;;;;;;4864086;29;20049;-82
2023/05/02 12:51:35;;;;;;;4.43;1.10;;;11.10;99.90;;;;;;4878541;29;20498;-82
2023/05/02 12:54:02;;;;;;;4.82;0.93;;;11.10;99.90;;;;;;4878762;29;20503;-82
2023/05/02 12:56:33;;;;;;;10.05;1.15;;;11.10;99.90;;;;;;4864051;29;20124;-82
2023/05/02 12:59:02;;;;;;;4.07;0.90;;;11.10;99.90;;;;;;4878835;29;20056;-82
2023/05/02 13:01:31;;;;;;;4.25;0.80;;;11.20;99.90;;;;;;4863845;29;20049;-82